Time;durP1;ratioP1;P1;durP2;ratioP2;P2;SDS_P1;SDS_P2;PMS_P1;PMS_P2;Temp;Humidity;BMP_temperature;BMP_pressure;BME280_temperature;BME280_humidity;BME280_pressure;Samples;Min_cycle;Max_cycle;Signal;HPM_P1;HPM_P2
2023/12/30 00:01:45;;;;;;;1.00;1.00;;;;;;;10.64;76.48;95413.91;5014994;28;20619;-87
2023/12/30 00:04:11;;;;;;;1.10;1.00;;;;;;;10.63;76.76;95414.88;5019926;28;20207;-88
2023/12/30 00:06:38;;;;;;;1.27;1.13;;;;;;;10.68;76.17;95405.66;5020751;28;20198;-87
2023/12/30 00:09:04;;;;;;;0.80;0.80;;;;;;;10.72;75.88;95394.00;5029704;28;20210;-88
2023/12/30 00:11:31;;;;;;;1.57;1.00;;;;;;;10.71;76.01;95395.00;5030934;28;20277;-87
2023/12/30 00:13:57;;;;;;;1.10;0.93;;;;;;;10.69;75.53;95389.22;5012731;28;20228;-87
2023/12/30 00:16:26;;;;;;;1.47;1.07;;;;;;;10.70;75.54;95395.97;5029473;28;20287;-88
2023/12/30 00:18:52;;;;;;;1.37;0.90;;;;;;;10.70;75.46;95385.66;5023817;28;20226;-87
2023/12/30 00:21:22;;;;;;;1.10;1.03;;;;;;;10.72;75.21;95386.28;5025658;28;20205;-88
2023/12/30 00:23:49;;;;;;;1.10;1.00;;;;;;;10.76;75.02;95389.31;5031527;28;20604;-88
2023/12/30 00:26:22;;;;;;;1.27;0.90;;;;;;;10.67;75.06;95375.72;5028925;28;20202;-88
2023/12/30 00:28:48;;;;;;;1.27;1.17;;;;;;;10.75;75.18;95376.59;5012710;28;20214;-87
2023/12/30 00:31:32;;;;;;;;;;;;;;;;;;;;;
2023/12/30 00:34:03;;;;;;;1.20;1.10;;;;;;;10.74;74.99;95388.69;5023291;28;20237;-88
2023/12/30 00:36:34;;;;;;;2.30;1.10;;;;;;;10.66;75.62;95393.94;5030452;28;20194;-87
2023/12/30 00:39:06;;;;;;;1.30;1.20;;;;;;;10.63;75.72;95405.38;5030669;28;20783;-88
2023/12/30 00:41:33;;;;;;;1.23;1.00;;;;;;;10.50;76.17;95418.13;5028139;28;20194;-88
2023/12/30 00:44:02;;;;;;;1.10;0.90;;;;;;;10.55;76.35;95417.59;5021149;28;20209;-88
2023/12/30 00:46:31;;;;;;;1.63;1.10;;;;;;;10.55;76.22;95412.44;5031143;28;20197;-87
2023/12/30 00:48:57;;;;;;;1.17;1.00;;;;;;;10.49;76.76;95420.88;5019505;28;20226;-88
2023/12/30 00:51:25;;;;;;;1.20;1.10;;;;;;;10.55;76.42;95408.09;5026585;28;20675;-88
2023/12/30 00:53:52;;;;;;;2.20;1.17;;;;;;;10.45;77.24;95423.00;5014642;28;20190;-88
2023/12/30 00:56:18;;;;;;;1.03;1.00;;;;;;;10.44;77.13;95421.41;5014149;28;20206;-87
2023/12/30 00:58:49;;;;;;;1.20;1.00;;;;;;;10.44;77.32;95425.75;5021976;28;20229;-88
2023/12/30 01:01:21;;;;;;;1.20;1.10;;;;;;;10.35;78.06;95440.50;5011043;28;20210;-88
2023/12/30 01:03:48;;;;;;;1.37;1.10;;;;;;;10.32;78.28;95440.84;5012063;28;20274;-87
2023/12/30 01:06:14;;;;;;;2.70;1.07;;;;;;;10.32;78.58;95441.66;5018111;28;20293;-88
2023/12/30 01:08:42;;;;;;;1.60;0.90;;;;;;;10.30;78.74;95446.19;5025325;28;20218;-88
2023/12/30 01:11:08;;;;;;;1.10;1.00;;;;;;;10.33;78.14;95439.88;5010432;28;20565;-87
2023/12/30 01:13:35;;;;;;;1.07;0.97;;;;;;;10.31;78.33;95434.09;5011300;28;20203;-88
2023/12/30 01:16:07;;;;;;;1.00;1.00;;;;;;;10.30;78.37;95440.22;5013500;28;20256;-87
2023/12/30 01:18:33;;;;;;;1.30;1.20;;;;;;;10.27;78.14;95441.38;5026290;28;20221;-89
2023/12/30 01:21:00;;;;;;;1.30;1.20;;;;;;;10.33;78.39;95443.25;5012058;28;20237;-87
2023/12/30 01:23:26;;;;;;;1.03;0.90;;;;;;;10.36;77.74;95440.31;5025872;28;20216;-87
2023/12/30 01:25:55;;;;;;;1.20;0.97;;;;;;;10.29;78.52;95459.22;5024805;28;20909;-87
2023/12/30 01:28:24;;;;;;;1.30;1.20;;;;;;;10.31;78.34;95457.25;5022525;28;20687;-87
2023/12/30 01:30:53;;;;;;;1.23;1.03;;;;;;;10.38;78.02;95453.81;5024787;28;20700;-88
2023/12/30 01:33:19;;;;;;;1.00;1.00;;;;;;;10.35;78.61;95459.31;5018562;28;20202;-88
2023/12/30 01:35:46;;;;;;;1.30;1.20;;;;;;;10.18;79.54;95493.09;5016346;28;20210;-87
2023/12/30 01:38:12;;;;;;;1.77;1.67;;;;;;;10.17;79.72;95494.84;5015562;28;20218;-87
2023/12/30 01:40:39;;;;;;;1.30;1.20;;;;;;;10.20;79.37;95504.03;5021287;28;20222;-88
2023/12/30 01:43:07;;;;;;;1.37;1.00;;;;;;;10.24;79.00;95497.53;5029290;28;20202;-88
2023/12/30 01:45:43;;;;;;;1.27;1.10;;;;;;;10.23;79.11;95486.44;5029590;28;20202;-88
2023/12/30 01:48:09;;;;;;;1.40;1.30;;;;;;;10.18;79.10;95491.31;5024171;28;20648;-88
2023/12/30 01:50:36;;;;;;;1.43;1.10;;;;;;;10.21;78.74;95492.72;5018654;28;20198;-87
2023/12/30 01:53:02;;;;;;;1.77;1.10;;;;;;;10.22;78.24;95479.69;5009435;28;20199;-87
2023/12/30 01:55:29;;;;;;;1.90;1.20;;;;;;;10.25;78.12;95481.13;5018717;28;20205;-88
2023/12/30 01:58:06;;;;;;;1.37;1.27;;;;;;;10.18;77.71;95478.44;5017516;28;20223;-88
2023/12/30 02:00:35;;;;;;;1.40;1.30;;;;;;;10.22;77.42;95466.03;5009491;28;20206;-87
2023/12/30 02:03:02;;;;;;;1.70;1.20;;;;;;;10.20;77.34;95458.50;5019684;28;20202;-87
2023/12/30 02:05:28;;;;;;;1.23;1.13;;;;;;;10.24;76.88;95446.06;5028142;28;20203;-88
2023/12/30 02:08:05;;;;;;;1.20;1.10;;;;;;;10.22;76.91;95432.59;5028559;28;20210;-87
2023/12/30 02:10:32;;;;;;;1.40;1.20;;;;;;;10.14;76.61;95425.75;5021686;28;20233;-88
2023/12/30 02:12:58;;;;;;;1.83;1.30;;;;;;;10.12;76.59;95430.25;5029114;28;20206;-87
2023/12/30 02:15:25;;;;;;;1.50;1.40;;;;;;;10.14;76.25;95428.31;5024954;28;20198;-87
2023/12/30 02:17:56;;;;;;;1.30;1.20;;;;;;;10.14;75.95;95414.66;5018362;28;20623;-88
2023/12/30 02:20:31;;;;;;;1.53;1.37;;;;;;;10.11;76.00;95428.66;5026640;28;20233;-88
2023/12/30 02:22:59;;;;;;;1.40;1.30;;;;;;;10.10;75.83;95421.91;5029248;28;20206;-88
2023/12/30 02:25:25;;;;;;;1.90;1.37;;;;;;;10.11;75.73;95410.66;5028065;28;20199;-88
2023/12/30 02:27:51;;;;;;;1.50;1.40;;;;;;;10.09;75.20;95416.94;5027276;28;20603;-87
2023/12/30 02:30:18;;;;;;;1.40;1.30;;;;;;;10.00;75.83;95398.25;5026312;28;20675;-88
2023/12/30 02:32:51;;;;;;;1.37;1.23;;;;;;;10.13;75.07;95398.41;5016894;28;20807;-87
2023/12/30 02:35:17;;;;;;;1.50;1.40;;;;;;;10.08;74.96;95393.00;5020907;28;20224;-88
2023/12/30 02:37:45;;;;;;;2.97;1.50;;;;;;;10.08;75.12;95387.84;5012549;28;20225;-87
2023/12/30 02:40:13;;;;;;;1.27;1.17;;;;;;;10.08;74.93;95389.63;5027951;28;20229;-88
2023/12/30 02:42:40;;;;;;;1.80;1.40;;;;;;;10.09;75.06;95401.50;5019921;28;20201;-87
2023/12/30 02:45:08;;;;;;;1.27;1.17;;;;;;;10.10;75.02;95397.97;5028395;28;20683;-87
2023/12/30 02:47:37;;;;;;;1.73;1.50;;;;;;;10.10;74.94;95397.97;5027101;28;20226;-87
2023/12/30 02:50:04;;;;;;;1.27;1.17;;;;;;;10.02;75.37;95417.66;5009879;28;20278;-87
2023/12/30 02:52:31;;;;;;;1.30;1.20;;;;;;;10.03;75.59;95424.38;5016655;28;20198;-88
2023/12/30 02:54:59;;;;;;;1.40;1.30;;;;;;;10.00;75.82;95426.53;5028539;28;20202;-88
2023/12/30 02:57:26;;;;;;;1.57;1.47;;;;;;;9.91;76.32;95440.44;5024099;28;20214;-88
2023/12/30 03:00:00;;;;;;;1.33;1.20;;;;;;;9.86;76.58;95461.53;5018442;28;20802;-87
2023/12/30 03:02:27;;;;;;;1.77;1.40;;;;;;;9.85;76.83;95467.66;5028528;28;20271;-88
2023/12/30 03:04:54;;;;;;;1.40;1.30;;;;;;;9.87;77.20;95470.03;5020786;28;20199;-87
2023/12/30 03:07:20;;;;;;;1.37;1.27;;;;;;;9.90;76.92;95467.94;5028677;28;20212;-87
2023/12/30 03:09:47;;;;;;;2.03;1.30;;;;;;;9.91;76.91;95466.16;5024574;28;20198;-88
2023/12/30 03:12:32;;;;;;;1.40;1.30;;;;;;;9.86;77.29;95474.38;5026521;28;20245;-88
2023/12/30 03:15:07;;;;;;;1.50;1.40;;;;;;;9.88;77.35;95481.94;5025471;28;20263;-87
2023/12/30 03:17:45;;;;;;;1.40;1.30;;;;;;;9.85;77.51;95501.06;5028204;28;20879;-88
2023/12/30 03:20:11;;;;;;;1.47;1.30;;;;;;;9.81;78.12;95505.00;5022021;28;20302;-87
2023/12/30 03:22:38;;;;;;;1.50;1.40;;;;;;;9.83;78.07;95504.78;5017455;28;20194;-87
2023/12/30 03:25:06;;;;;;;1.70;1.60;;;;;;;9.83;78.24;95515.06;5008612;28;20195;-88
2023/12/30 03:27:34;;;;;;;1.50;1.40;;;;;;;9.82;78.60;95518.63;5018228;28;20241;-88
2023/12/30 03:30:08;;;;;;;1.67;1.57;;;;;;;9.84;78.60;95516.69;5020162;28;20202;-88
2023/12/30 03:32:35;;;;;;;1.67;1.50;;;;;;;9.90;78.26;95513.41;5020649;28;20206;-88
2023/12/30 03:35:04;;;;;;;2.17;1.80;;;;;;;9.89;78.47;95512.63;5025433;28;20467;-88
2023/12/30 03:37:34;;;;;;;1.93;1.80;;;;;;;9.82;78.88;95524.56;5027881;28;20218;-87
2023/12/30 03:40:00;;;;;;;1.60;1.50;;;;;;;9.86;78.92;95520.69;5027807;28;20650;-88
2023/12/30 03:42:34;;;;;;;1.50;1.40;;;;;;;9.80;79.17;95528.31;5013737;28;20205;-88
2023/12/30 03:45:05;;;;;;;1.70;1.60;;;;;;;9.79;79.33;95529.28;5012412;28;20195;-88
2023/12/30 03:47:34;;;;;;;2.50;1.73;;;;;;;9.78;79.30;95540.53;5015844;28;20222;-88
2023/12/30 03:50:01;;;;;;;1.97;1.80;;;;;;;9.77;79.41;95536.34;5022851;28;20240;-88
2023/12/30 03:52:36;;;;;;;1.87;1.63;;;;;;;9.84;78.71;95521.81;5032023;28;20248;-88
2023/12/30 03:55:03;;;;;;;1.80;1.70;;;;;;;9.82;78.62;95519.41;5019471;28;20226;-88
2023/12/30 03:57:29;;;;;;;1.90;1.70;;;;;;;9.75;78.95;95518.53;5032098;28;20779;-87
2023/12/30 03:59:57;;;;;;;1.50;1.40;;;;;;;9.74;78.50;95518.69;5031267;28;20202;-88
2023/12/30 04:02:26;;;;;;;1.80;1.60;;;;;;;9.72;78.42;95521.44;5031687;28;20198;-88
2023/12/30 04:05:01;;;;;;;1.83;1.70;;;;;;;9.76;78.38;95512.41;5029403;28;20236;-88
2023/12/30 04:07:28;;;;;;;2.27;1.53;;;;;;;9.81;78.03;95506.75;5013246;28;20635;-88
2023/12/30 04:09:54;;;;;;;1.70;1.60;;;;;;;9.74;77.60;95500.69;5014410;28;20850;-88
2023/12/30 04:12:23;;;;;;;1.87;1.70;;;;;;;9.85;77.45;95505.41;5022392;28;20318;-88
2023/12/30 04:15:03;;;;;;;1.70;1.60;;;;;;;9.77;77.15;95493.44;5019981;28;20205;-88
2023/12/30 04:17:30;;;;;;;1.80;1.70;;;;;;;9.85;76.79;95495.13;5019738;28;20678;-88
2023/12/30 04:19:57;;;;;;;2.80;1.70;;;;;;;9.86;76.32;95487.25;5018244;28;20210;-87
2023/12/30 04:22:25;;;;;;;2.47;1.50;;;;;;;9.81;76.43;95484.41;5031410;28;20206;-87
2023/12/30 04:24:52;;;;;;;1.60;1.50;;;;;;;9.81;76.43;95476.72;5030623;28;20200;-87
2023/12/30 04:27:25;;;;;;;1.60;1.50;;;;;;;9.79;75.91;95476.09;5029824;28;20206;-88
2023/12/30 04:29:51;;;;;;;1.80;1.70;;;;;;;9.79;75.85;95467.56;5030308;28;20198;-87
2023/12/30 04:32:20;;;;;;;1.50;1.40;;;;;;;9.77;75.57;95457.47;5030123;28;20597;-87
2023/12/30 04:34:49;;;;;;;2.67;1.63;;;;;;;9.78;75.30;95450.53;5021342;28;20195;-88
2023/12/30 04:37:15;;;;;;;1.50;1.40;;;;;;;9.80;74.80;95446.81;5028377;28;20201;-87
2023/12/30 04:39:42;;;;;;;1.93;1.60;;;;;;;9.82;74.71;95438.91;5031269;28;20551;-88
2023/12/30 04:42:08;;;;;;;2.03;1.40;;;;;;;9.82;73.79;95426.84;5030669;28;20222;-88
2023/12/30 04:44:35;;;;;;;1.40;1.30;;;;;;;9.81;74.06;95425.28;5026526;28;20191;-88
2023/12/30 04:47:01;;;;;;;2.37;1.20;;;;;;;9.74;73.58;95406.38;5027153;28;20203;-88
2023/12/30 04:49:28;;;;;;;1.40;1.30;;;;;;;9.77;73.00;95402.66;5027572;28;20557;-88
2023/12/30 04:51:55;;;;;;;1.47;1.20;;;;;;;9.70;72.47;95379.41;5027184;28;20202;-88
2023/12/30 04:54:22;;;;;;;2.73;1.27;;;;;;;9.70;72.58;95387.13;5021546;28;20202;-88
2023/12/30 04:56:56;;;;;;;1.20;1.10;;;;;;;9.64;72.49;95380.91;5030638;28;20208;-88
2023/12/30 04:59:23;;;;;;;1.57;1.37;;;;;;;9.68;72.12;95376.22;5023695;28;20230;-88
2023/12/30 05:01:49;;;;;;;1.73;1.30;;;;;;;9.70;71.97;95375.06;5012446;28;20243;-89
2023/12/30 05:04:20;;;;;;;1.33;1.23;;;;;;;9.74;71.79;95357.53;5015396;28;20198;-88
2023/12/30 05:06:57;;;;;;;1.37;1.27;;;;;;;9.69;71.40;95358.06;5030948;28;20676;-88
2023/12/30 05:09:25;;;;;;;1.40;1.13;;;;;;;9.74;71.28;95362.69;5027903;28;20283;-89
2023/12/30 05:11:51;;;;;;;1.63;1.10;;;;;;;9.73;71.24;95368.78;5020530;28;20203;-88
2023/12/30 05:14:18;;;;;;;2.50;1.37;;;;;;;9.72;71.11;95349.19;5029876;28;20284;-88
2023/12/30 05:16:45;;;;;;;1.57;1.17;;;;;;;9.81;70.65;95345.56;5026477;28;20656;-88
2023/12/30 05:19:11;;;;;;;1.40;1.07;;;;;;;9.73;70.48;95330.22;5021848;28;20613;-88
2023/12/30 05:21:41;;;;;;;1.50;1.30;;;;;;;9.78;71.04;95339.97;5010432;28;20740;-88
2023/12/30 05:24:07;;;;;;;1.10;1.00;;;;;;;9.74;70.57;95339.53;5014050;28;20644;-88
2023/12/30 05:26:35;;;;;;;1.43;1.30;;;;;;;9.74;70.87;95342.09;5010828;28;20616;-88
2023/12/30 05:29:55;;;;;;;;;;;;;;;;;;;;;
2023/12/30 05:32:22;;;;;;;1.47;1.37;;;;;;;9.75;70.86;95355.75;5014763;28;20201;-89
2023/12/30 05:34:48;;;;;;;1.37;1.20;;;;;;;9.79;71.09;95362.16;5028318;28;20603;-88
2023/12/30 05:37:14;;;;;;;1.20;1.10;;;;;;;9.77;70.98;95372.59;5029422;28;20190;-88
2023/12/30 05:39:41;;;;;;;1.40;1.20;;;;;;;9.84;71.28;95375.25;5028095;28;20668;-88
2023/12/30 05:42:09;;;;;;;1.23;1.13;;;;;;;9.83;71.31;95381.38;5029265;28;20232;-88
2023/12/30 05:44:38;;;;;;;1.33;1.23;;;;;;;9.83;71.36;95389.09;5017314;28;20195;-88
2023/12/30 05:47:08;;;;;;;1.93;1.20;;;;;;;9.83;71.57;95397.59;5010956;28;20668;-89
2023/12/30 05:49:35;;;;;;;1.70;1.50;;;;;;;9.83;71.78;95399.38;5027619;28;20226;-88
2023/12/30 05:52:01;;;;;;;1.47;1.30;;;;;;;9.93;71.54;95398.16;5029634;28;20286;-88
2023/12/30 05:54:28;;;;;;;2.27;1.67;;;;;;;9.90;71.29;95395.94;5026681;28;20195;-89
2023/12/30 05:57:00;;;;;;;1.57;1.47;;;;;;;9.95;71.72;95395.41;5016547;28;20273;-88
2023/12/30 05:59:32;;;;;;;3.73;1.70;;;;;;;10.00;71.25;95393.09;5022629;28;20605;-88
2023/12/30 06:01:59;;;;;;;1.60;1.40;;;;;;;9.99;71.08;95396.66;5028606;28;20198;-88
2023/12/30 06:04:28;;;;;;;4.10;1.67;;;;;;;9.90;71.54;95408.78;5017892;28;20260;-88
2023/12/30 06:06:55;;;;;;;1.43;1.33;;;;;;;9.88;72.14;95428.72;5025858;28;20277;-88
2023/12/30 06:09:26;;;;;;;1.93;1.60;;;;;;;9.91;71.88;95425.00;5025012;28;20226;-88
2023/12/30 06:11:54;;;;;;;1.83;1.57;;;;;;;9.89;72.19;95432.09;5027219;28;20209;-88
2023/12/30 06:14:21;;;;;;;2.77;1.60;;;;;;;9.82;72.67;95444.84;5021577;28;20198;-87
2023/12/30 06:16:50;;;;;;;2.00;1.63;;;;;;;9.87;72.66;95454.63;5019576;28;20193;-88
2023/12/30 06:19:20;;;;;;;1.83;1.50;;;;;;;9.80;73.26;95464.03;5012810;28;20238;-88
2023/12/30 06:21:59;;;;;;;;;;;;;;;;;;;;;
2023/12/30 06:24:26;;;;;;;2.23;1.77;;;;;;;9.84;73.78;95496.91;5028428;28;20208;-88
2023/12/30 06:26:54;;;;;;;2.63;1.70;;;;;;;9.90;73.70;95496.22;5028356;28;20194;-88
2023/12/30 06:29:25;;;;;;;4.07;1.77;;;;;;;9.88;73.68;95487.06;5016874;28;20606;-88
2023/12/30 06:32:02;;;;;;;2.90;2.00;;;;;;;9.90;73.97;95498.78;5016911;28;20222;-88
2023/12/30 06:34:30;;;;;;;2.23;2.00;;;;;;;9.80;74.54;95511.09;5011562;28;20197;-89
2023/12/30 06:36:57;;;;;;;2.13;1.80;;;;;;;9.77;74.87;95521.72;5009579;28;20269;-87
2023/12/30 06:39:23;;;;;;;2.07;1.83;;;;;;;9.88;74.37;95518.72;5010448;28;20230;-88
2023/12/30 06:41:50;;;;;;;2.10;1.90;;;;;;;9.86;74.59;95522.44;5019592;28;20225;-86
2023/12/30 06:44:26;;;;;;;2.00;1.90;;;;;;;9.86;74.67;95527.59;5011407;28;21944;-88
2023/12/30 06:46:54;;;;;;;1.90;1.80;;;;;;;9.75;75.17;95540.88;5028795;28;20205;-87
2023/12/30 06:49:24;;;;;;;3.70;2.30;;;;;;;9.72;75.55;95539.44;5018716;28;20225;-88
2023/12/30 06:51:50;;;;;;;2.33;2.10;;;;;;;9.78;75.26;95537.97;5009526;28;20191;-88
2023/12/30 06:54:20;;;;;;;2.30;2.10;;;;;;;9.80;75.09;95546.31;5023897;28;20205;-88
2023/12/30 06:56:49;;;;;;;2.43;2.00;;;;;;;9.67;76.22;95560.50;5020610;28;20726;-88
2023/12/30 06:59:16;;;;;;;2.30;2.10;;;;;;;9.78;75.59;95554.19;5008676;28;20302;-87
2023/12/30 07:01:42;;;;;;;2.30;2.10;;;;;;;9.79;75.45;95550.66;5019971;28;20237;-88
2023/12/30 07:04:10;;;;;;;2.97;2.10;;;;;;;9.73;75.62;95551.31;5019320;28;20664;-87
2023/12/30 07:06:36;;;;;;;2.97;2.60;;;;;;;9.78;75.53;95549.03;5028158;28;20198;-88
2023/12/30 07:09:10;;;;;;;2.33;2.13;;;;;;;9.75;75.75;95551.94;5021447;28;20211;-89
2023/12/30 07:11:38;;;;;;;2.20;2.00;;;;;;;9.76;75.12;95539.91;5021987;28;20233;-89
2023/12/30 07:14:05;;;;;;;3.00;2.20;;;;;;;9.79;75.29;95545.50;5008708;28;20258;-88
2023/12/30 07:16:31;;;;;;;2.77;2.23;;;;;;;9.81;75.20;95540.19;5009673;28;20198;-88
2023/12/30 07:18:58;;;;;;;2.90;2.10;;;;;;;9.80;74.99;95536.03;5023866;28;20222;-88
2023/12/30 07:21:37;;;;;;;2.60;2.40;;;;;;;9.81;74.85;95524.75;5032944;28;20229;-89
2023/12/30 07:24:04;;;;;;;3.40;2.20;;;;;;;9.71;74.99;95535.25;5028859;28;20200;-88
2023/12/30 07:26:30;;;;;;;3.17;2.37;;;;;;;9.80;74.41;95539.38;5036766;28;20231;-89
2023/12/30 07:28:56;;;;;;;2.20;2.00;;;;;;;9.86;74.37;95533.53;5035472;28;20706;-88
2023/12/30 07:31:25;;;;;;;2.50;2.30;;;;;;;9.93;73.61;95521.59;5033544;28;20705;-89
2023/12/30 07:34:00;;;;;;;3.30;2.23;;;;;;;9.90;73.20;95521.13;5029788;28;20281;-89
2023/12/30 07:36:27;;;;;;;4.30;2.23;;;;;;;9.93;72.82;95510.50;5037613;28;20197;-89
2023/12/30 07:38:55;;;;;;;2.63;1.90;;;;;;;9.87;73.04;95514.56;5024123;28;20731;-89
2023/12/30 07:41:21;;;;;;;1.90;1.80;;;;;;;9.92;72.92;95511.47;5024792;28;20234;-90
2023/12/30 07:43:49;;;;;;;1.93;1.83;;;;;;;9.92;72.58;95511.47;5014669;28;20191;-90
2023/12/30 07:46:25;;;;;;;2.43;2.20;;;;;;;10.02;72.41;95505.09;5034189;28;20622;-88
2023/12/30 07:52:38;;;;;;;2.13;1.93;;;;;;;10.19;75.83;95605.34;4893697;29;20211;-87
2023/12/30 07:55:14;;;;;;;3.13;2.07;;;;;;;10.32;72.34;95521.44;4948327;29;20251;-88
2023/12/30 07:57:41;;;;;;;2.43;2.23;;;;;;;10.43;71.02;95491.06;4954413;29;20303;-89
2023/12/30 08:00:08;;;;;;;4.00;1.97;;;;;;;10.53;70.56;95455.56;4953703;29;20212;-88
2023/12/30 08:02:34;;;;;;;1.93;1.80;;;;;;;10.58;69.72;95430.88;4954688;29;20224;-89
2023/12/30 08:05:01;;;;;;;5.00;2.17;;;;;;;10.59;69.44;95419.59;4952247;29;20213;-88
2023/12/30 08:07:40;;;;;;;2.03;1.67;;;;;;;10.70;68.96;95395.16;4947247;29;20205;-88
2023/12/30 08:10:37;;;;;;;2.43;1.70;;;;;;;10.72;67.84;95367.47;4946898;29;20237;-88
2023/12/30 08:19:39;;;;;;;1.93;1.60;;;;;;;11.29;65.53;95279.78;4744916;30;20999;-88
2023/12/30 08:22:26;;;;;;;1.40;1.30;;;;;;;11.47;64.61;95235.47;4791567;29;20230;-88
2023/12/30 08:24:54;;;;;;;2.13;1.50;;;;;;;11.55;63.76;95199.19;4907030;29;20212;-89
2023/12/30 08:27:45;;;;;;;1.60;1.50;;;;;;;11.68;63.79;95201.06;5014644;28;20221;-89
2023/12/30 08:30:12;;;;;;;1.50;1.37;;;;;;;11.92;62.68;95159.31;5029605;28;20237;-89
2023/12/30 08:32:45;;;;;;;2.13;1.60;;;;;;;12.07;62.02;95141.88;5029175;28;20194;-88
2023/12/30 08:35:23;;;;;;;1.37;1.27;;;;;;;12.36;61.52;95101.97;5028374;28;20208;-89
2023/12/30 08:37:50;;;;;;;2.70;1.50;;;;;;;12.60;60.36;95061.84;5029171;28;20214;-89
2023/12/30 08:40:33;;;;;;;2.50;1.30;;;;;;;12.74;59.44;95011.72;5032296;28;20212;-89
2023/12/30 08:43:04;;;;;;;1.60;1.50;;;;;;;13.11;59.56;95033.44;5036713;28;20820;-88
2023/12/30 08:46:02;;;;;;;1.40;1.30;;;;;;;13.39;58.15;94976.28;5033848;28;20281;-88
2023/12/30 08:51:20;;;;;;;1.50;1.40;;;;;;;13.78;56.91;94915.69;5028953;28;20594;-89
2023/12/30 08:53:46;;;;;;;1.43;1.30;;;;;;;13.93;56.99;94917.94;5033838;28;20194;-89
2023/12/30 08:56:13;;;;;;;1.40;1.30;;;;;;;14.08;56.17;94886.53;5030047;28;20202;-87
2023/12/30 08:58:49;;;;;;;1.60;1.30;;;;;;;14.11;55.47;94848.06;5024819;28;20222;-87
2023/12/30 09:01:30;;;;;;;1.50;1.40;;;;;;;14.18;55.20;94833.28;5026887;28;20642;-89
2023/12/30 09:04:03;;;;;;;1.50;1.33;;;;;;;14.22;55.68;94849.16;5028670;28;20619;-89
2023/12/30 09:06:43;;;;;;;2.03;1.30;;;;;;;14.23;55.07;94837.00;5029919;28;20221;-89
2023/12/30 09:09:16;;;;;;;2.58;1.50;;;;;;;14.28;55.10;94824.19;5030001;28;20228;-88
2023/12/30 09:11:59;;;;;;;3.13;1.40;;;;;;;14.19;53.91;94782.28;5029396;28;20273;-89
2023/12/30 09:14:27;;;;;;;1.65;1.10;;;;;;;13.76;54.40;94769.44;5027445;28;20202;-88
2023/12/30 09:16:54;;;;;;;1.95;1.38;;;;;;;13.69;55.33;94820.44;5027390;28;20214;-89
2023/12/30 09:19:20;;;;;;;1.40;1.30;;;;;;;13.93;54.84;94826.59;5028990;28;20210;-89
2023/12/30 09:21:46;;;;;;;1.20;1.10;;;;;;;14.09;54.08;94793.13;5029306;28;20226;-89
2023/12/30 09:24:23;;;;;;;1.95;1.25;;;;;;;14.08;53.61;94773.44;5029608;28;20194;-89
2023/12/30 09:26:50;;;;;;;1.27;1.17;;;;;;;14.14;53.57;94751.88;5026011;28;20217;-89
2023/12/30 09:29:17;;;;;;;1.17;0.98;;;;;;;13.93;53.71;94756.72;5026543;28;20222;-89
2023/12/30 09:32:09;;;;;;;1.13;1.00;;;;;;;14.12;53.56;94759.06;5027622;28;23219;-88
2023/12/30 09:34:38;;;;;;;2.08;1.10;;;;;;;14.01;53.17;94727.97;5025861;28;20297;-89
2023/12/30 09:37:07;;;;;;;1.30;1.20;;;;;;;13.89;53.32;94737.44;5029380;28;20289;-88
2023/12/30 09:39:33;;;;;;;1.10;1.00;;;;;;;13.86;53.48;94750.81;5029549;28;20249;-89
2023/12/30 09:42:06;;;;;;;2.35;0.90;;;;;;;13.63;53.60;94748.91;5028224;28;20241;-89
2023/12/30 09:44:33;;;;;;;1.27;1.13;;;;;;;13.83;53.66;94770.16;5029148;28;20190;-89
2023/12/30 09:47:07;;;;;;;1.67;1.58;;;;;;;13.99;53.23;94758.44;5023488;28;20294;-89
2023/12/30 09:49:35;;;;;;;1.15;1.10;;;;;;;14.13;52.64;94728.78;5024412;28;20234;-89
2023/12/30 09:52:21;;;;;;;1.20;1.10;;;;;;;14.38;52.35;94723.47;5028705;28;20198;-89
2023/12/30 09:54:51;;;;;;;0.90;0.90;;;;;;;14.39;52.16;94681.03;5031328;28;20201;-88
2023/12/30 09:59:52;;;;;;;1.00;1.00;;;;;;;14.52;51.80;94666.09;5053832;22;20254;-88
2023/12/30 10:02:20;;;;;;;1.05;1.00;;;;;;;14.58;51.86;94658.47;4971554;28;20324;-88
2023/12/30 10:04:49;;;;;;;1.92;1.00;;;;;;;14.79;51.50;94655.31;5005248;28;20222;-88
2023/12/30 10:07:31;;;;;;;1.00;1.00;;;;;;;14.64;50.94;94613.50;5017245;28;20261;-88
2023/12/30 10:10:09;;;;;;;1.10;1.00;;;;;;;14.56;51.35;94632.78;4989696;28;20213;-89
2023/12/30 10:15:17;;;;;;;1.50;0.90;;;;;;;14.64;51.38;94644.59;4988259;28;20211;-88
2023/12/30 10:17:50;;;;;;;1.50;1.00;;;;;;;14.53;51.05;94620.28;4998842;28;20691;-89
2023/12/30 10:20:35;;;;;;;2.22;1.90;;;;;;;14.40;51.32;94629.06;5007437;28;20203;-88
2023/12/30 10:23:07;;;;;;;1.70;1.60;;;;;;;14.48;51.54;94633.09;5009509;28;20222;-89
2023/12/30 10:25:48;;;;;;;;;;;;;;;;;;;;;
2023/12/30 10:28:16;;;;;;;2.15;0.80;;;;;;;14.62;51.09;94620.75;5020134;28;20225;-89
2023/12/30 10:30:42;;;;;;;2.78;1.38;;;;;;;14.44;51.63;94619.00;5029664;28;20204;-88
2023/12/30 10:33:12;;;;;;;1.33;1.08;;;;;;;14.32;51.46;94618.19;5020599;28;21056;-88
2023/12/30 10:35:39;;;;;;;1.20;0.95;;;;;;;14.28;51.58;94627.41;5009305;28;20203;-88
2023/12/30 10:38:14;;;;;;;0.98;0.90;;;;;;;14.33;51.73;94630.13;5006624;28;20226;-88
2023/12/30 10:40:43;;;;;;;1.08;1.00;;;;;;;14.29;51.44;94616.81;5008552;28;20207;-87
2023/12/30 10:43:10;;;;;;;0.95;0.90;;;;;;;14.37;51.70;94621.69;5016517;28;20592;-87
2023/12/30 10:45:41;;;;;;;1.60;1.10;;;;;;;14.56;51.46;94612.06;5028934;28;20301;-87
2023/12/30 10:48:19;;;;;;;0.80;0.80;;;;;;;14.56;51.00;94598.31;4998873;28;20590;-85
2023/12/30 10:50:54;;;;;;;2.15;1.05;;;;;;;14.49;51.14;94598.41;5002475;28;20205;-86
2023/12/30 10:53:32;;;;;;;4.15;0.77;;;;;;;14.46;51.07;94591.09;5005469;28;20563;-86
2023/12/30 10:56:01;;;;;;;0.85;0.80;;;;;;;14.48;51.13;94607.19;5008099;28;20203;-87
2023/12/30 10:58:33;;;;;;;3.67;3.28;;;;;;;14.53;51.14;94594.38;5003116;28;20222;-86
2023/12/30 11:01:02;;;;;;;1.17;0.80;;;;;;;14.50;50.93;94585.25;5004917;28;20728;-86
2023/12/30 11:03:35;;;;;;;1.27;0.80;;;;;;;14.47;50.88;94582.31;5007741;28;20254;-85
2023/12/30 11:06:08;;;;;;;0.80;0.80;;;;;;;14.42;51.29;94603.72;5006243;28;20195;-86
2023/12/30 11:08:43;;;;;;;1.02;0.90;;;;;;;14.47;51.28;94613.38;4991340;28;20266;-85
2023/12/30 11:11:14;;;;;;;1.10;1.00;;;;;;;14.20;51.50;94589.69;5007499;28;20578;-86
2023/12/30 11:13:42;;;;;;;0.88;0.88;;;;;;;14.26;51.39;94606.13;5007548;28;20205;-87
2023/12/30 11:16:13;;;;;;;0.70;0.70;;;;;;;14.20;51.34;94601.84;5008354;28;20206;-86
2023/12/30 11:18:53;;;;;;;0.80;0.77;;;;;;;14.24;51.29;94601.16;5002746;28;20630;-86
2023/12/30 11:21:46;;;;;;;1.05;0.95;;;;;;;14.12;50.99;94585.63;4990343;28;20544;-86
2023/12/30 11:24:17;;;;;;;1.00;0.98;;;;;;;14.07;51.41;94592.47;4988156;28;20227;-86
2023/12/30 11:26:46;;;;;;;0.80;0.80;;;;;;;14.04;51.49;94593.72;5006671;28;20241;-86
2023/12/30 11:29:18;;;;;;;0.90;0.90;;;;;;;13.97;51.69;94592.22;4989183;28;20738;-86
2023/12/30 11:31:46;;;;;;;1.65;1.55;;;;;;;13.89;51.64;94593.31;4994680;28;20201;-87
2023/12/30 11:34:19;;;;;;;0.93;0.85;;;;;;;14.10;51.28;94592.81;5013680;28;20209;-87
2023/12/30 11:36:49;;;;;;;1.13;0.88;;;;;;;14.02;51.39;94576.84;5014852;28;20317;-87
2023/12/30 11:39:23;;;;;;;1.30;0.80;;;;;;;14.02;51.50;94575.03;5015361;28;20214;-87
2023/12/30 11:41:57;;;;;;;0.80;0.80;;;;;;;14.18;51.09;94565.84;5014066;28;20196;-87
2023/12/30 11:44:24;;;;;;;1.10;1.00;;;;;;;14.36;50.99;94562.34;5018017;28;20218;-85
2023/12/30 11:46:50;;;;;;;2.28;1.90;;;;;;;14.37;50.40;94528.47;5014830;28;20194;-87
2023/12/30 11:49:22;;;;;;;1.30;0.93;;;;;;;14.07;50.72;94522.59;5015814;28;20222;-88
2023/12/30 11:51:50;;;;;;;0.95;0.80;;;;;;;14.03;51.22;94550.75;5019031;28;20729;-87
2023/12/30 11:54:23;;;;;;;1.02;0.82;;;;;;;14.06;51.03;94546.88;5017648;28;20195;-87
2023/12/30 11:56:51;;;;;;;0.93;0.90;;;;;;;14.32;50.94;94545.69;5014616;28;20199;-87
2023/12/30 11:59:18;;;;;;;1.00;0.90;;;;;;;14.52;50.44;94533.22;5001512;28;20338;-85
2023/12/30 12:01:46;;;;;;;0.82;0.73;;;;;;;14.58;49.94;94487.50;5002164;28;20195;-88
2023/12/30 12:04:26;;;;;;;0.70;0.68;;;;;;;14.76;49.86;94495.91;4990418;28;20306;-86
2023/12/30 12:06:54;;;;;;;0.77;0.77;;;;;;;14.81;49.67;94482.28;4994253;28;20257;-86
2023/12/30 12:09:23;;;;;;;0.90;0.77;;;;;;;14.94;49.55;94482.00;5012289;28;20258;-86
2023/12/30 12:11:49;;;;;;;1.10;1.00;;;;;;;14.84;49.31;94446.31;5012167;28;20191;-86
2023/12/30 12:14:25;;;;;;;0.82;0.70;;;;;;;14.85;49.14;94453.06;5010811;28;20438;-87